Time;durP1;ratioP1;P1;durP2;ratioP2;P2;SDS_P1;SDS_P2;PMS_P1;PMS_P2;Temp;Humidity;BMP_temperature;BMP_pressure;BME280_temperature;BME280_humidity;BME280_pressure;Samples;Min_cycle;Max_cycle;Signal;HPM_P1;HPM_P2
2022/11/29 00:01:32;;;;;;;192.63;23.63;;;8.50;99.90;;;;;;4975140;28;20054;-76
2022/11/29 00:03:58;;;;;;;131.45;18.83;;;8.50;99.90;;;;;;4969829;28;20031;-76
2022/11/29 00:06:31;;;;;;;99.20;17.65;;;8.40;99.90;;;;;;4958746;28;20109;-76
2022/11/29 00:08:59;;;;;;;155.80;20.25;;;8.40;99.90;;;;;;4965671;28;20485;-76
2022/11/29 00:14:14;;;;;;;131.50;20.30;;;8.30;99.90;;;;;;4990620;28;20085;-76
2022/11/29 00:16:40;;;;;;;184.00;22.10;;;8.30;99.90;;;;;;4992630;28;20050;-76
2022/11/29 00:19:10;;;;;;;178.77;22.02;;;8.10;99.90;;;;;;4990697;28;20048;-76
2022/11/29 00:21:36;;;;;;;209.15;23.33;;;8.10;99.90;;;;;;4976278;28;20046;-76
2022/11/29 00:24:02;;;;;;;182.45;22.70;;;8.10;99.90;;;;;;4975082;28;20052;-76
2022/11/29 00:26:28;;;;;;;248.55;25.08;;;8.10;99.90;;;;;;4970894;28;20465;-76
2022/11/29 00:28:53;;;;;;;252.93;23.85;;;8.10;99.90;;;;;;4965894;28;20030;-76
2022/11/29 00:31:25;;;;;;;128.93;19.52;;;8.10;99.90;;;;;;4975027;28;20105;-76
2022/11/29 00:33:51;;;;;;;281.50;26.80;;;8.00;99.90;;;;;;4974608;28;20093;-76
2022/11/29 00:36:17;;;;;;;244.23;25.75;;;8.10;99.90;;;;;;4973218;28;20150;-76
2022/11/29 00:38:43;;;;;;;277.27;25.73;;;8.00;99.90;;;;;;4970959;28;20122;-76
2022/11/29 00:41:10;;;;;;;214.98;22.65;;;8.10;99.90;;;;;;4969173;28;20133;-76
2022/11/29 00:43:36;;;;;;;229.50;23.55;;;8.00;99.90;;;;;;4974788;28;20487;-76
2022/11/29 00:46:03;;;;;;;228.77;23.13;;;8.00;99.90;;;;;;4995194;28;20108;-76
2022/11/29 00:48:29;;;;;;;247.23;24.80;;;8.00;99.90;;;;;;4973931;28;20131;-76
2022/11/29 00:50:54;;;;;;;218.95;24.30;;;8.00;99.90;;;;;;4955352;28;20125;-76
2022/11/29 00:53:22;;;;;;;232.75;26.77;;;8.00;99.90;;;;;;4970873;28;20049;-76
2022/11/29 00:55:49;;;;;;;254.35;25.02;;;8.00;99.90;;;;;;4963834;28;20039;-76
2022/11/29 00:58:14;;;;;;;178.57;22.10;;;8.00;99.90;;;;;;4978410;28;20034;-76
2022/11/29 01:00:40;;;;;;;169.70;21.90;;;8.00;99.90;;;;;;4994175;28;20039;-76
2022/11/29 01:03:08;;;;;;;248.20;24.77;;;8.00;99.90;;;;;;4985707;28;20045;-76
2022/11/29 01:05:34;;;;;;;177.63;22.08;;;8.00;99.90;;;;;;4994686;28;20034;-76
2022/11/29 01:08:03;;;;;;;189.18;23.35;;;8.00;99.90;;;;;;4985141;28;20041;-76
2022/11/29 01:10:29;;;;;;;158.52;19.55;;;8.00;99.90;;;;;;4978990;28;20042;-76
2022/11/29 01:12:55;;;;;;;204.32;21.80;;;8.00;99.90;;;;;;4997620;28;20053;-76
2022/11/29 01:15:20;;;;;;;263.42;27.42;;;8.00;99.90;;;;;;4997226;28;20038;-76
2022/11/29 01:17:47;;;;;;;212.52;23.65;;;7.90;99.90;;;;;;4985029;28;20127;-76
2022/11/29 01:20:14;;;;;;;152.25;22.13;;;7.90;99.90;;;;;;4976193;28;20039;-76
2022/11/29 01:22:40;;;;;;;161.60;21.55;;;8.00;99.90;;;;;;4972365;28;20053;-76
2022/11/29 01:25:07;;;;;;;159.77;22.40;;;7.90;99.90;;;;;;4972322;28;20030;-76
2022/11/29 01:27:33;;;;;;;163.13;21.35;;;7.90;99.90;;;;;;4978125;28;20034;-76
2022/11/29 01:30:02;;;;;;;185.52;22.13;;;8.00;99.90;;;;;;4989479;28;20038;-76
2022/11/29 01:32:28;;;;;;;164.45;22.77;;;7.90;99.90;;;;;;4979721;28;20073;-76
2022/11/29 01:34:53;;;;;;;139.02;19.55;;;7.90;99.90;;;;;;4977685;28;20452;-76
2022/11/29 01:37:19;;;;;;;174.63;22.08;;;7.90;99.90;;;;;;4977493;28;20121;-76
2022/11/29 01:39:47;;;;;;;252.18;25.90;;;7.90;99.90;;;;;;4976742;28;20069;-76
2022/11/29 01:42:13;;;;;;;190.95;22.50;;;7.90;99.90;;;;;;4982746;28;20073;-76
2022/11/29 01:44:38;;;;;;;152.40;21.80;;;8.00;99.90;;;;;;4976784;28;20469;-76
2022/11/29 01:47:04;;;;;;;188.13;23.45;;;7.90;99.90;;;;;;4975725;28;20049;-76
2022/11/29 01:49:37;;;;;;;172.75;21.33;;;7.90;99.90;;;;;;4975642;28;20030;-76
2022/11/29 01:52:29;;;;;;;166.80;23.67;;;7.90;99.90;;;;;;4972771;28;20070;-76
2022/11/29 01:54:59;;;;;;;194.25;24.70;;;8.00;99.90;;;;;;4985693;28;20057;-76
2022/11/29 01:57:25;;;;;;;166.63;21.05;;;7.90;99.90;;;;;;4981146;28;20042;-76
2022/11/29 01:59:56;;;;;;;210.38;24.73;;;7.90;99.90;;;;;;5009647;28;20493;-76
2022/11/29 02:02:29;;;;;;;200.88;24.85;;;7.80;99.90;;;;;;4972661;28;20458;-76
2022/11/29 02:04:57;;;;;;;125.22;21.10;;;7.90;99.90;;;;;;4977016;28;20076;-76
2022/11/29 02:07:23;;;;;;;202.55;22.67;;;7.80;99.90;;;;;;4976506;28;20080;-76
2022/11/29 02:09:49;;;;;;;163.38;21.98;;;7.80;99.90;;;;;;4976542;28;20535;-76
2022/11/29 02:12:29;;;;;;;163.13;21.45;;;7.90;99.90;;;;;;4972296;28;20049;-76
2022/11/29 02:15:13;;;;;;;175.75;22.30;;;7.80;99.90;;;;;;4970657;28;20493;-76
2022/11/29 02:17:47;;;;;;;148.75;21.35;;;7.80;99.90;;;;;;4977012;28;20097;-76
2022/11/29 02:20:50;;;;;;;158.30;21.45;;;7.90;99.90;;;;;;4976308;28;20034;-76
2022/11/29 02:23:52;;;;;;;158.43;22.60;;;7.80;99.90;;;;;;4972948;28;20050;-76
2022/11/29 02:26:45;;;;;;;197.82;23.40;;;7.80;99.90;;;;;;4972015;28;20030;-76
2022/11/29 02:29:30;;;;;;;144.73;21.65;;;7.80;99.90;;;;;;4957128;28;20043;-76
2022/11/29 02:32:27;;;;;;;130.70;20.15;;;7.80;99.90;;;;;;4964454;28;20046;-76
2022/11/29 02:35:00;;;;;;;214.18;23.20;;;7.80;99.90;;;;;;4955940;28;20034;-76
2022/11/29 02:37:45;;;;;;;152.23;21.65;;;7.80;99.90;;;;;;4968799;28;20039;-76
2022/11/29 02:40:40;;;;;;;168.25;20.58;;;7.80;99.90;;;;;;4971917;28;20073;-76
2022/11/29 02:43:13;;;;;;;136.63;20.27;;;7.80;99.90;;;;;;5006105;28;20103;-76
2022/11/29 02:45:43;;;;;;;;;;;7.80;99.90;;;;;;4972456;28;20042;-76
2022/11/29 02:48:48;;;;;;;153.57;21.05;;;7.80;99.90;;;;;;4967643;28;19994;-75
2022/11/29 02:51:13;;;;;;;156.50;18.95;;;7.80;99.90;;;;;;4908321;28;20054;-75
2022/11/29 02:53:46;;;;;;;131.23;19.25;;;7.80;99.90;;;;;;4985225;28;20092;-75
2022/11/29 02:56:39;;;;;;;141.95;20.30;;;7.80;99.90;;;;;;4995408;28;20100;-75
2022/11/29 02:59:15;;;;;;;147.27;20.27;;;7.80;99.90;;;;;;4990001;28;20096;-75
2022/11/29 03:02:09;;;;;;;122.82;19.70;;;7.70;99.90;;;;;;4978590;28;20485;-75
2022/11/29 03:04:53;;;;;;;147.05;19.90;;;7.70;99.90;;;;;;4965218;28;20035;-75
2022/11/29 03:07:39;;;;;;;155.88;20.58;;;7.70;99.90;;;;;;4956349;28;20098;-76
2022/11/29 03:10:29;;;;;;;158.20;21.25;;;7.70;99.90;;;;;;4957143;28;20109;-76
2022/11/29 03:12:57;;;;;;;193.88;22.25;;;7.70;99.90;;;;;;4990591;28;20050;-76
2022/11/29 03:15:28;;;;;;;169.10;22.58;;;7.70;99.90;;;;;;4980829;28;20078;-76
2022/11/29 03:18:32;;;;;;;158.32;20.83;;;7.60;99.90;;;;;;4972322;28;20038;-76
2022/11/29 03:21:04;;;;;;;;;;;7.60;99.90;;;;;;4959066;28;20089;-76
2022/11/29 03:23:46;;;;;;;96.78;17.83;;;7.60;99.90;;;;;;4991666;28;19924;-76
2022/11/29 03:26:34;;;;;;;109.28;18.23;;;7.60;99.90;;;;;;4975277;28;20084;-76
2022/11/29 03:29:15;;;;;;;134.63;19.83;;;7.60;99.90;;;;;;4975238;28;20041;-75
2022/11/29 03:31:49;;;;;;;147.10;19.58;;;7.60;99.90;;;;;;4974310;28;20106;-76
2022/11/29 03:34:42;;;;;;;113.93;20.25;;;7.50;99.90;;;;;;4975394;28;20035;-76
2022/11/29 03:37:15;;;;;;;160.75;21.35;;;7.50;99.90;;;;;;4975401;28;20135;-76
2022/11/29 03:39:50;;;;;;;156.40;21.30;;;7.50;99.90;;;;;;4971782;28;20038;-76
2022/11/29 03:42:29;;;;;;;170.23;23.15;;;7.50;99.90;;;;;;4962100;28;20109;-76
2022/11/29 03:45:04;;;;;;;145.65;20.58;;;7.50;99.90;;;;;;4955818;28;20101;-76
2022/11/29 03:47:47;;;;;;;150.45;19.48;;;7.50;99.90;;;;;;4956018;28;20038;-76
2022/11/29 03:50:17;;;;;;;148.68;21.13;;;7.50;99.90;;;;;;4962327;28;20035;-76
2022/11/29 03:52:55;;;;;;;151.00;21.55;;;7.50;99.90;;;;;;4982268;28;20433;-76
2022/11/29 03:55:20;;;;;;;131.00;21.20;;;7.50;99.90;;;;;;4991736;28;20049;-76
2022/11/29 03:58:21;;;;;;;141.75;21.60;;;7.50;99.90;;;;;;4994280;28;20515;-76
2022/11/29 04:01:08;;;;;;;125.22;22.17;;;7.50;99.90;;;;;;4979449;28;20042;-76
2022/11/29 04:03:58;;;;;;;148.07;21.30;;;7.50;99.90;;;;;;4958449;28;20054;-76
2022/11/29 04:06:53;;;;;;;149.73;22.30;;;7.50;99.90;;;;;;4966923;28;20117;-76
2022/11/29 04:09:34;;;;;;;136.82;19.92;;;7.40;99.90;;;;;;4955587;28;20039;-76
2022/11/29 04:12:18;;;;;;;147.88;21.52;;;7.40;99.90;;;;;;4960773;28;20082;-76
2022/11/29 04:15:17;;;;;;;170.18;22.48;;;7.40;99.90;;;;;;5000316;28;20033;-76
2022/11/29 04:18:20;;;;;;;146.25;20.50;;;7.40;99.90;;;;;;4994887;28;20033;-76
2022/11/29 04:21:14;;;;;;;154.38;21.15;;;7.40;99.90;;;;;;4969269;28;20038;-76
2022/11/29 04:24:04;;;;;;;131.32;20.73;;;7.40;99.90;;;;;;4984448;28;20038;-76
2022/11/29 04:26:59;;;;;;;137.32;19.10;;;7.40;99.90;;;;;;4990459;28;20492;-76
2022/11/29 04:30:08;;;;;;;129.50;18.55;;;7.30;99.90;;;;;;4978352;28;20042;-76
2022/11/29 04:32:47;;;;;;;147.77;19.05;;;7.30;99.90;;;;;;4907788;29;20549;-76
2022/11/29 04:35:50;;;;;;;173.93;21.45;;;7.30;99.90;;;;;;4900511;29;20103;-76
2022/11/29 04:38:31;;;;;;;117.35;19.05;;;7.30;99.90;;;;;;4975133;28;20050;-76
2022/11/29 04:41:21;;;;;;;170.68;20.00;;;7.30;99.90;;;;;;4966988;28;20054;-76
2022/11/29 04:44:18;;;;;;;159.48;19.20;;;7.20;99.90;;;;;;4979631;28;20039;-76
2022/11/29 04:47:03;;;;;;;175.88;20.27;;;7.30;99.90;;;;;;4955640;28;20083;-76
2022/11/29 04:49:29;;;;;;;113.97;16.75;;;7.30;99.90;;;;;;4955000;28;20046;-76
2022/11/29 04:52:21;;;;;;;199.70;23.38;;;7.30;99.90;;;;;;4960691;28;20050;-76
2022/11/29 04:55:12;;;;;;;147.43;20.50;;;7.20;99.90;;;;;;4970389;28;20038;-76
2022/11/29 04:58:11;;;;;;;222.07;24.55;;;7.30;99.90;;;;;;4988675;28;20034;-76
2022/11/29 05:00:51;;;;;;;205.30;23.02;;;7.20;99.90;;;;;;4974636;28;20142;-76
2022/11/29 05:03:41;;;;;;;190.32;21.52;;;7.20;99.90;;;;;;4980082;28;20108;-76
2022/11/29 05:06:39;;;;;;;168.73;20.15;;;7.20;99.90;;;;;;4979764;28;20046;-76
2022/11/29 05:09:29;;;;;;;146.20;18.40;;;7.20;99.90;;;;;;4978863;28;20512;-76
2022/11/29 05:12:19;;;;;;;145.23;20.30;;;7.20;99.90;;;;;;4959075;28;20046;-76
2022/11/29 05:14:56;;;;;;;200.15;23.25;;;7.20;99.90;;;;;;4981108;28;20445;-76
2022/11/29 05:17:36;;;;;;;179.45;21.42;;;7.10;99.90;;;;;;4991125;28;20038;-76
2022/11/29 05:20:21;;;;;;;231.95;24.70;;;7.20;99.90;;;;;;4993409;28;20037;-76
2022/11/29 05:22:56;;;;;;;156.98;20.70;;;7.10;99.90;;;;;;4979959;28;20448;-76
2022/11/29 05:25:33;;;;;;;152.02;20.17;;;7.10;99.90;;;;;;4974663;28;20038;-76
2022/11/29 05:28:14;;;;;;;201.13;22.58;;;7.20;99.90;;;;;;4977089;28;20404;-76
2022/11/29 05:31:02;;;;;;;204.45;22.48;;;7.20;99.90;;;;;;4978210;28;20058;-76
2022/11/29 05:33:46;;;;;;;150.45;20.02;;;7.20;99.90;;;;;;4974546;28;20046;-76
2022/11/29 05:36:37;;;;;;;202.27;21.67;;;7.20;99.90;;;;;;4965518;28;20045;-76
2022/11/29 05:39:15;;;;;;;144.45;18.25;;;7.10;99.90;;;;;;4957338;28;20046;-76
2022/11/29 05:42:04;;;;;;;182.43;20.58;;;7.20;99.90;;;;;;4962545;28;20043;-76
2022/11/29 05:44:40;;;;;;;189.65;20.55;;;7.20;99.90;;;;;;4992412;28;20037;-76
2022/11/29 05:47:11;;;;;;;212.32;21.80;;;7.20;99.90;;;;;;4996693;28;20109;-76
2022/11/29 05:49:56;;;;;;;195.73;21.58;;;7.20;99.90;;;;;;5001527;28;20031;-76
2022/11/29 05:52:52;;;;;;;169.80;21.38;;;7.10;99.90;;;;;;4984388;28;20173;-76
2022/11/29 05:55:32;;;;;;;183.80;20.48;;;7.10;99.90;;;;;;4988791;28;20081;-76
2022/11/29 05:58:29;;;;;;;182.23;21.02;;;7.20;99.90;;;;;;4983460;28;20725;-76
2022/11/29 06:01:22;;;;;;;209.52;22.80;;;7.10;99.90;;;;;;4987297;28;20540;-76
2022/11/29 06:04:07;;;;;;;236.32;25.00;;;7.10;99.90;;;;;;4972065;28;20038;-76
2022/11/29 06:06:45;;;;;;;240.57;23.27;;;7.20;99.90;;;;;;4971421;28;20497;-76
2022/11/29 06:09:20;;;;;;;274.35;23.67;;;7.20;99.90;;;;;;4986866;28;20504;-76
2022/11/29 06:12:04;;;;;;;179.93;21.60;;;7.20;99.90;;;;;;4991617;28;20041;-76
2022/11/29 06:15:00;;;;;;;203.52;22.40;;;7.20;99.90;;;;;;4978148;28;20544;-76
2022/11/29 06:17:59;;;;;;;180.95;21.50;;;7.10;99.90;;;;;;4957566;28;20054;-76
2022/11/29 06:21:01;;;;;;;187.77;21.33;;;7.20;99.90;;;;;;4957900;28;20137;-76
2022/11/29 06:23:33;;;;;;;155.45;18.70;;;7.20;99.90;;;;;;4973907;28;20839;-76
2022/11/29 06:26:33;;;;;;;148.23;18.42;;;7.10;99.90;;;;;;4996422;28;20034;-76
2022/11/29 06:29:18;;;;;;;131.50;18.48;;;7.10;99.90;;;;;;4987411;28;20117;-76
2022/11/29 06:31:49;;;;;;;209.85;22.58;;;7.20;99.90;;;;;;4958361;28;20051;-76
2022/11/29 06:34:38;;;;;;;160.82;19.67;;;7.10;99.90;;;;;;5006520;28;20125;-76
2022/11/29 06:37:20;;;;;;;134.73;17.45;;;7.10;99.90;;;;;;4978218;28;20045;-76
2022/11/29 06:39:46;;;;;;;209.63;20.70;;;7.10;99.90;;;;;;4969539;28;20080;-76
2022/11/29 06:42:12;;;;;;;188.85;19.60;;;7.10;99.90;;;;;;4964474;28;20345;-76
2022/11/29 06:44:37;;;;;;;147.45;18.38;;;7.00;99.90;;;;;;4984648;28;20072;-76
2022/11/29 06:47:08;;;;;;;169.48;19.55;;;7.10;99.90;;;;;;4974299;28;20050;-76
2022/11/29 06:49:44;;;;;;;134.38;19.25;;;7.10;99.90;;;;;;4975448;28;20576;-76
2022/11/29 06:52:29;;;;;;;156.85;19.95;;;7.00;99.90;;;;;;4974644;28;20547;-76
2022/11/29 06:55:10;;;;;;;192.02;21.60;;;7.10;99.90;;;;;;4972547;28;20033;-76
2022/11/29 06:57:47;;;;;;;168.45;20.30;;;7.00;99.90;;;;;;4959723;28;20046;-76
2022/11/29 07:00:25;;;;;;;147.43;18.15;;;7.00;99.90;;;;;;4983600;28;20042;-76
2022/11/29 07:03:16;;;;;;;190.18;20.50;;;7.00;99.90;;;;;;4963608;28;20042;-76
2022/11/29 07:05:42;;;;;;;233.57;22.77;;;7.00;99.90;;;;;;4986910;28;20160;-76
2022/11/29 07:08:17;;;;;;;176.23;21.80;;;7.00;99.90;;;;;;5004165;28;20271;-76
2022/11/29 07:10:45;;;;;;;225.40;23.73;;;7.00;99.90;;;;;;4991522;28;20050;-76
2022/11/29 07:13:14;;;;;;;177.55;20.60;;;7.00;99.90;;;;;;4975558;28;20069;-76
2022/11/29 07:16:21;;;;;;;215.57;23.45;;;7.10;99.90;;;;;;4978455;28;20400;-76
2022/11/29 07:18:53;;;;;;;167.95;19.80;;;7.00;99.90;;;;;;4976045;28;20100;-76
2022/11/29 07:21:42;;;;;;;168.57;20.33;;;7.00;99.90;;;;;;4976149;28;20038;-76
2022/11/29 07:24:31;;;;;;;223.90;23.48;;;7.10;99.90;;;;;;4972910;28;20046;-76
2022/11/29 07:27:11;;;;;;;213.20;23.05;;;7.00;99.90;;;;;;4969144;28;20408;-76
2022/11/29 07:29:55;;;;;;;174.20;19.10;;;7.10;99.90;;;;;;4975978;28;20042;-76
2022/11/29 07:32:52;;;;;;;164.10;21.38;;;7.10;99.90;;;;;;4974381;28;20046;-76
2022/11/29 07:35:31;;;;;;;172.88;20.05;;;7.10;99.90;;;;;;5007498;28;20049;-76
2022/11/29 07:38:34;;;;;;;180.60;20.42;;;7.10;99.90;;;;;;4990402;28;20129;-76
2022/11/29 07:41:08;;;;;;;180.93;20.83;;;7.10;99.90;;;;;;4980052;28;20049;-76
2022/11/29 07:43:52;;;;;;;127.25;18.52;;;7.00;99.90;;;;;;4980403;28;20316;-76
2022/11/29 07:46:18;;;;;;;137.98;18.23;;;7.10;99.90;;;;;;4975681;28;20108;-76
2022/11/29 07:48:43;;;;;;;184.68;20.75;;;7.10;99.90;;;;;;4980999;28;20484;-76
2022/11/29 07:51:09;;;;;;;132.40;17.67;;;7.20;99.90;;;;;;4980482;28;20374;-76
2022/11/29 07:53:42;;;;;;;129.50;19.05;;;7.10;99.90;;;;;;4971524;28;20062;-76
2022/11/29 07:56:11;;;;;;;;;;;7.10;99.90;;;;;;4984588;28;20042;-76
2022/11/29 07:58:37;;;;;;;201.80;21.88;;;7.10;99.90;;;;;;4984457;28;19924;-76
2022/11/29 08:01:03;;;;;;;164.57;19.65;;;7.10;99.90;;;;;;4980664;28;20046;-76
2022/11/29 08:03:29;;;;;;;178.82;19.23;;;7.10;99.90;;;;;;4964072;28;20370;-76
2022/11/29 08:05:55;;;;;;;183.30;21.13;;;7.10;99.90;;;;;;4967313;28;20051;-76
2022/11/29 08:08:21;;;;;;;164.20;20.02;;;7.10;99.90;;;;;;4971794;28;20039;-76
2022/11/29 08:10:49;;;;;;;147.43;20.08;;;7.10;99.90;;;;;;4971944;28;20038;-76
2022/11/29 08:13:20;;;;;;;161.40;18.23;;;7.10;99.90;;;;;;4985152;28;20082;-76
2022/11/29 08:15:46;;;;;;;120.43;17.52;;;7.20;99.90;;;;;;4993396;28;20050;-76
2022/11/29 08:18:18;;;;;;;114.55;17.27;;;7.10;99.90;;;;;;4970579;28;20513;-75
2022/11/29 08:20:45;;;;;;;146.27;19.08;;;7.20;99.90;;;;;;4980809;28;20048;-75
2022/11/29 08:23:12;;;;;;;175.05;20.25;;;7.20;99.90;;;;;;4987462;28;20045;-75
2022/11/29 08:25:38;;;;;;;117.47;18.90;;;7.20;99.90;;;;;;4990700;28;20034;-74
2022/11/29 08:28:04;;;;;;;163.18;20.63;;;7.20;99.90;;;;;;4990398;28;20046;-75
2022/11/29 08:30:30;;;;;;;163.60;20.02;;;7.20;99.90;;;;;;4997046;28;20630;-75
2022/11/29 08:32:56;;;;;;;162.82;19.10;;;7.20;99.90;;;;;;4968008;28;20043;-75
2022/11/29 08:35:23;;;;;;;178.10;21.13;;;7.20;99.90;;;;;;4964787;28;20400;-76
2022/11/29 08:37:49;;;;;;;116.30;16.98;;;7.10;99.90;;;;;;4972767;28;20042;-76
2022/11/29 08:40:16;;;;;;;160.60;19.00;;;7.20;99.90;;;;;;4972856;28;20426;-75
2022/11/29 08:42:42;;;;;;;164.60;19.58;;;7.20;99.90;;;;;;4972458;28;20030;-75
2022/11/29 08:45:08;;;;;;;122.82;17.20;;;7.30;99.90;;;;;;4971817;28;20041;-76
2022/11/29 08:47:35;;;;;;;114.38;15.57;;;7.30;99.90;;;;;;4980346;28;20116;-76
2022/11/29 08:50:10;;;;;;;96.57;13.82;;;7.30;99.90;;;;;;4967860;28;20118;-75
2022/11/29 08:55:25;;;;;;;92.75;14.57;;;7.20;99.90;;;;;;4990354;28;20104;-75
2022/11/29 08:57:51;;;;;;;108.68;15.57;;;7.20;99.90;;;;;;4973365;28;20043;-76
2022/11/29 09:00:20;;;;;;;95.32;14.48;;;7.20;99.90;;;;;;4975563;28;20038;-77
2022/11/29 09:02:46;;;;;;;105.03;15.02;;;7.30;99.90;;;;;;4977710;28;20059;-76
2022/11/29 09:05:12;;;;;;;98.05;14.27;;;7.30;99.90;;;;;;5010602;28;20384;-76
2022/11/29 09:07:38;;;;;;;71.10;12.93;;;7.20;99.90;;;;;;4989756;28;20034;-77
2022/11/29 09:10:07;;;;;;;105.97;14.50;;;7.20;99.90;;;;;;4968302;28;20034;-77
2022/11/29 09:12:36;;;;;;;114.75;15.15;;;7.30;99.90;;;;;;4971982;28;20038;-76
2022/11/29 09:15:08;;;;;;;101.22;15.00;;;7.30;99.90;;;;;;4969695;28;20505;-75
2022/11/29 09:17:34;;;;;;;99.07;14.70;;;7.30;99.90;;;;;;4974814;28;20046;-75
2022/11/29 09:20:00;;;;;;;99.63;15.80;;;7.40;99.90;;;;;;4967203;28;20053;-75
2022/11/29 09:22:26;;;;;;;92.15;16.27;;;7.40;99.90;;;;;;4980576;28;20026;-75
2022/11/29 09:24:51;;;;;;;88.40;14.80;;;7.40;99.90;;;;;;4974599;28;20041;-76
2022/11/29 09:27:17;;;;;;;119.32;17.42;;;7.50;99.90;;;;;;4974939;28;20472;-76
2022/11/29 09:29:43;;;;;;;90.85;14.80;;;7.50;99.90;;;;;;4976141;28;20037;-76
2022/11/29 09:32:11;;;;;;;95.35;15.43;;;7.50;99.90;;;;;;4976481;28;20577;-76
2022/11/29 09:34:37;;;;;;;93.75;15.45;;;7.50;99.90;;;;;;4974548;28;20070;-76
2022/11/29 09:37:35;;;;;;;60.72;13.05;;;7.50;99.90;;;;;;4971900;28;20088;-76
2022/11/29 09:40:04;;;;;;;92.57;16.42;;;7.50;99.90;;;;;;4954914;28;20056;-74
2022/11/29 09:43:06;;;;;;;73.20;14.95;;;7.50;99.90;;;;;;4975974;28;20511;-76
2022/11/29 09:45:51;;;;;;;98.43;16.63;;;7.50;99.90;;;;;;4973559;28;20078;-76
2022/11/29 09:49:03;;;;;;;87.15;16.60;;;7.50;99.90;;;;;;4977674;28;20069;-76
2022/11/29 09:52:04;;;;;;;102.60;19.80;;;7.50;99.90;;;;;;4984612;28;20137;-76
2022/11/29 09:55:00;;;;;;;111.13;25.02;;;7.50;99.90;;;;;;4976884;28;20038;-76
2022/11/29 09:57:43;;;;;;;;;;;;;;;;;;;;;
2022/11/29 10:00:47;;;;;;;231.20;48.90;;;7.50;99.90;;;;;;4992614;28;20038;-76
2022/11/29 10:03:33;;;;;;;218.02;46.75;;;7.60;99.90;;;;;;5003974;28;20039;-76
2022/11/29 10:07:00;;;;;;;105.80;28.67;;;7.60;99.90;;;;;;4976781;28;20050;-77
2022/11/29 10:10:02;;;;;;;97.10;24.02;;;7.60;99.90;;;;;;4957616;28;20047;-76
2022/11/29 10:12:45;;;;;;;96.65;29.13;;;7.60;99.90;;;;;;4935321;28;20175;-77
2022/11/29 10:15:26;;;;;;;90.70;22.60;;;7.70;99.90;;;;;;4983539;28;20088;-77
2022/11/29 10:18:09;;;;;;;89.15;19.52;;;7.70;99.90;;;;;;4980234;28;20532;-77
2022/11/29 10:20:41;;;;;;;66.60;19.00;;;7.80;99.90;;;;;;4975565;28;20134;-75
2022/11/29 10:23:45;;;;;;;76.15;18.13;;;7.80;99.90;;;;;;4974646;28;20069;-76
2022/11/29 10:26:12;;;;;;;103.57;20.45;;;7.90;99.90;;;;;;4958267;28;20466;-76
2022/11/29 10:28:43;;;;;;;106.95;23.13;;;7.90;99.90;;;;;;4982586;28;20082;-76
2022/11/29 10:31:15;;;;;;;67.78;18.27;;;8.00;99.90;;;;;;4998030;28;20037;-76
2022/11/29 10:33:41;;;;;;;54.60;17.20;;;8.20;99.90;;;;;;4985375;28;20121;-76
2022/11/29 10:36:15;;;;;;;60.53;18.15;;;8.50;99.90;;;;;;4975436;28;20141;-76
2022/11/29 10:38:43;;;;;;;59.50;16.33;;;8.70;99.90;;;;;;4989785;28;20039;-76
2022/11/29 10:41:14;;;;;;;47.97;15.23;;;8.80;99.90;;;;;;4976361;28;20030;-76
2022/11/29 10:43:41;;;;;;;42.50;14.32;;;8.80;99.90;;;;;;4984072;28;20125;-76
2022/11/29 10:46:15;;;;;;;58.90;16.60;;;8.80;99.90;;;;;;4981818;28;20515;-76
2022/11/29 10:48:40;;;;;;;60.28;15.00;;;8.80;99.90;;;;;;5004716;28;20042;-76
2022/11/29 10:51:15;;;;;;;36.17;12.88;;;8.70;99.90;;;;;;4977043;28;20074;-76
2022/11/29 10:53:41;;;;;;;48.70;14.15;;;8.70;99.90;;;;;;4989392;28;20045;-75
2022/11/29 10:56:17;;;;;;;47.63;13.57;;;8.70;99.90;;;;;;4976519;28;20046;-76
2022/11/29 10:58:56;;;;;;;47.05;14.27;;;8.70;99.90;;;;;;4988991;28;20038;-76
2022/11/29 11:01:26;;;;;;;47.63;13.82;;;8.70;99.90;;;;;;4976328;28;20552;-76
2022/11/29 11:03:59;;;;;;;51.13;15.07;;;8.70;99.90;;;;;;4969930;28;20532;-77
2022/11/29 11:06:52;;;;;;;40.00;12.82;;;8.70;99.90;;;;;;4992140;28;20077;-77
2022/11/29 11:09:41;;;;;;;36.22;13.63;;;8.70;99.90;;;;;;4995676;28;20140;-76
2022/11/29 11:12:19;;;;;;;30.92;13.25;;;8.70;99.90;;;;;;4978644;28;20038;-76
2022/11/29 11:14:45;;;;;;;30.20;13.48;;;8.70;99.90;;;;;;4969339;28;20057;-76
2022/11/29 11:17:24;;;;;;;32.95;14.10;;;8.80;99.90;;;;;;4996767;28;20117;-75
2022/11/29 11:19:57;;;;;;;35.47;14.63;;;9.00;99.90;;;;;;4974545;28;20054;-75
2022/11/29 11:22:31;;;;;;;35.28;13.98;;;9.10;99.90;;;;;;4992690;28;20076;-78
2022/11/29 11:25:13;;;;;;;33.67;13.70;;;9.10;99.90;;;;;;4975508;28;20050;-78
2022/11/29 11:27:50;;;;;;;29.15;12.90;;;9.20;99.90;;;;;;4974057;28;20058;-78
2022/11/29 11:30:31;;;;;;;34.22;12.55;;;9.20;99.90;;;;;;4975950;28;20109;-78
2022/11/29 11:33:21;;;;;;;35.60;13.77;;;9.20;99.90;;;;;;4975691;28;20085;-77
2022/11/29 11:36:08;;;;;;;36.22;14.38;;;9.20;99.90;;;;;;4974213;28;20042;-76
2022/11/29 11:38:37;;;;;;;33.15;14.55;;;9.20;99.90;;;;;;4982155;28;20053;-76
2022/11/29 11:44:27;;;;;;;29.38;13.07;;;9.30;99.90;;;;;;5003726;28;20055;-78
2022/11/29 11:46:56;;;;;;;29.35;12.15;;;9.30;99.90;;;;;;4956696;28;20045;-78
2022/11/29 11:49:37;;;;;;;29.88;11.85;;;9.30;99.90;;;;;;4956437;28;20042;-76
2022/11/29 11:52:04;;;;;;;24.55;11.85;;;9.20;99.90;;;;;;4965019;28;20061;-77
2022/11/29 11:54:31;;;;;;;34.33;12.80;;;9.20;99.90;;;;;;4981329;28;20408;-77
2022/11/29 11:56:57;;;;;;;26.77;13.02;;;9.20;99.90;;;;;;4967319;28;20049;-76
2022/11/29 11:59:25;;;;;;;30.35;12.43;;;9.30;99.90;;;;;;4977184;28;20039;-76
2022/11/29 12:01:51;;;;;;;25.75;11.68;;;9.40;99.90;;;;;;4972849;28;20482;-76
2022/11/29 12:04:34;;;;;;;18.40;10.48;;;9.50;99.90;;;;;;4961584;28;20034;-76
2022/11/29 12:07:13;;;;;;;21.33;11.88;;;9.50;99.90;;;;;;4980404;28;20043;-76
2022/11/29 12:09:45;;;;;;;26.40;12.15;;;9.50;99.90;;;;;;4966979;28;20122;-76
2022/11/29 12:12:30;;;;;;;26.73;12.15;;;9.40;99.90;;;;;;4990106;28;20057;-75
2022/11/29 12:15:27;;;;;;;24.58;12.82;;;9.40;99.90;;;;;;4976415;28;20046;-76
2022/11/29 12:17:59;;;;;;;21.63;11.48;;;9.40;99.90;;;;;;4958335;28;20055;-76
2022/11/29 12:20:46;;;;;;;29.13;12.77;;;9.30;99.90;;;;;;4978021;28;20053;-76
2022/11/29 12:23:15;;;;;;;18.67;11.05;;;9.20;99.90;;;;;;4976279;28;20042;-76
2022/11/29 12:25:59;;;;;;;27.92;12.82;;;9.20;99.90;;;;;;4959176;28;20181;-76
2022/11/29 12:28:34;;;;;;;20.10;10.63;;;9.20;99.90;;;;;;4973618;28;20555;-76
2022/11/29 12:31:33;;;;;;;24.67;11.38;;;9.30;99.90;;;;;;4965766;28;20045;-76
2022/11/29 12:34:08;;;;;;;30.38;12.30;;;9.30;99.90;;;;;;4971541;28;20504;-76
2022/11/29 12:37:05;;;;;;;31.73;12.98;;;9.30;99.90;;;;;;4983747;28;20030;-76
2022/11/29 12:39:43;;;;;;;31.00;12.50;;;9.30;99.90;;;;;;4974899;28;20030;-76
2022/11/29 12:42:39;;;;;;;29.73;11.15;;;9.30;99.90;;;;;;4975225;28;20543;-76
2022/11/29 12:45:48;;;;;;;31.75;11.73;;;9.30;99.90;;;;;;4973754;28;20493;-76
2022/11/29 12:48:25;;;;;;;25.27;11.68;;;9.30;99.90;;;;;;4971519;28;20126;-76
2022/11/29 12:51:18;;;;;;;26.23;11.38;;;9.20;99.90;;;;;;4970623;28;20034;-76
2022/11/29 12:54:05;;;;;;;28.05;10.88;;;9.20;99.90;;;;;;4971161;28;20178;-76
2022/11/29 12:56:40;;;;;;;21.45;10.77;;;9.20;99.90;;;;;;4977689;28;20034;-76
2022/11/29 12:59:34;;;;;;;28.55;11.50;;;9.30;99.90;;;;;;4998251;28;20038;-77
2022/11/29 13:02:20;;;;;;;23.13;12.30;;;9.30;99.90;;;;;;4992115;28;20042;-76
2022/11/29 13:05:17;;;;;;;26.58;12.05;;;9.30;99.90;;;;;;4974496;28;20185;-76
2022/11/29 13:08:01;;;;;;;23.75;13.25;;;9.30;99.90;;;;;;4983117;28;20039;-76
2022/11/29 13:10:35;;;;;;;23.85;12.13;;;9.20;99.90;;;;;;4973640;28;20425;-76
2022/11/29 13:13:19;;;;;;;26.25;11.82;;;9.20;99.90;;;;;;4967473;28;20046;-76
2022/11/29 13:16:03;;;;;;;33.13;12.90;;;9.20;99.90;;;;;;4975388;28;20045;-76
2022/11/29 13:18:37;;;;;;;27.38;12.40;;;9.10;99.90;;;;;;4976278;28;20407;-77
2022/11/29 13:21:08;;;;;;;22.33;10.95;;;9.10;99.90;;;;;;4976938;28;20509;-76
2022/11/29 13:24:03;;;;;;;27.88;11.95;;;9.00;99.90;;;;;;4968948;28;20043;-76
2022/11/29 13:26:31;;;;;;;30.67;12.48;;;9.00;99.90;;;;;;4975059;28;20039;-76
2022/11/29 13:28:59;;;;;;;28.45;10.88;;;9.00;99.90;;;;;;4973760;28;20105;-77
2022/11/29 13:31:25;;;;;;;25.83;11.93;;;9.00;99.90;;;;;;4971763;28;20070;-75
2022/11/29 13:34:06;;;;;;;25.52;11.90;;;9.00;99.90;;;;;;4976822;28;20495;-76
2022/11/29 13:37:11;;;;;;;31.35;12.70;;;9.00;99.90;;;;;;5001165;28;20069;-77